Time;durP1;ratioP1;P1;durP2;ratioP2;P2;SDS_P1;SDS_P2;PMS_P1;PMS_P2;Temp;Humidity;BMP_temperature;BMP_pressure;BME280_temperature;BME280_humidity;BME280_pressure;Samples;Min_cycle;Max_cycle;Signal;HPM_P1;HPM_P2
2022/07/23 00:01:51;;;;;;;3.08;2.87;;;;;;;19.68;57.93;99749.27;1835991;75;21497;-66
2022/07/23 00:04:18;;;;;;;5.10;3.22;;;;;;;19.65;58.26;99757.87;1849035;76;21613;-65
2022/07/23 00:06:44;;;;;;;5.42;3.20;;;;;;;19.63;58.39;99768.31;1838230;75;21439;-65
2022/07/23 00:09:11;;;;;;;7.17;3.20;;;;;;;19.52;58.85;99758.48;1837603;75;21426;-65
2022/07/23 00:11:39;;;;;;;4.58;3.20;;;;;;;19.44;59.24;99759.57;1837537;76;21392;-67
2022/07/23 00:14:07;;;;;;;3.83;3.50;;;;;;;19.43;59.37;99761.86;1840454;75;21475;-67
2022/07/23 00:16:35;;;;;;;3.22;2.92;;;;;;;19.40;59.52;99758.09;1841786;75;21013;-66
2022/07/23 00:19:03;;;;;;;;;;;;;;;19.37;59.70;99761.85;1849136;76;21521;-66
2022/07/23 00:21:30;;;;;;;4.00;3.62;;;;;;;19.27;60.12;99767.55;1840749;75;20409;-66
2022/07/23 00:23:57;;;;;;;5.22;3.35;;;;;;;19.24;59.89;99771.77;1834788;75;21776;-66
2022/07/23 00:26:23;;;;;;;5.78;3.83;;;;;;;19.18;60.20;99772.25;1833241;75;21504;-66
2022/07/23 00:28:50;;;;;;;4.78;3.37;;;;;;;19.25;60.10;99766.81;1834979;75;21539;-66
2022/07/23 00:31:17;;;;;;;4.33;3.60;;;;;;;19.31;59.93;99766.34;1836444;75;21536;-67
2022/07/23 00:33:46;;;;;;;5.25;3.58;;;;;;;19.28;60.03;99762.56;1844150;77;21477;-66
2022/07/23 00:36:12;;;;;;;4.65;3.67;;;;;;;19.29;60.12;99763.40;1833914;75;21761;-66
2022/07/23 00:38:39;;;;;;;4.62;3.40;;;;;;;19.34;60.00;99766.08;1832464;77;21450;-66
2022/07/23 00:41:06;;;;;;;3.83;3.42;;;;;;;19.39;59.76;99756.41;1842534;75;21454;-66
2022/07/23 00:43:32;;;;;;;4.40;3.70;;;;;;;19.42;59.70;99762.81;1826840;75;21020;-66
2022/07/23 00:45:59;;;;;;;3.62;3.33;;;;;;;19.58;59.45;99759.81;1832741;75;21446;-66
2022/07/23 00:48:26;;;;;;;3.47;3.17;;;;;;;19.61;59.23;99763.59;1834279;75;21884;-66
2022/07/23 00:50:53;;;;;;;3.65;3.37;;;;;;;19.61;59.12;99764.92;1835483;76;21020;-66
2022/07/23 00:53:20;;;;;;;4.42;3.40;;;;;;;19.63;58.88;99766.98;1844058;75;21486;-66
2022/07/23 00:55:47;;;;;;;3.72;3.42;;;;;;;19.65;58.76;99766.38;1837301;75;21470;-66
2022/07/23 00:58:15;;;;;;;5.22;3.65;;;;;;;19.62;58.98;99760.77;1843113;75;21536;-65
2022/07/23 01:00:42;;;;;;;;;;;;;;;19.66;58.90;99770.72;1847233;76;22074;-65
2022/07/23 01:03:09;;;;;;;4.33;3.42;;;;;;;19.37;59.76;99769.01;1834307;75;20414;-65
2022/07/23 01:05:38;;;;;;;4.20;3.47;;;;;;;19.32;59.79;99774.68;1834098;75;21588;-68
2022/07/23 01:08:06;;;;;;;3.92;3.55;;;;;;;19.31;59.87;99774.33;1846974;75;21596;-65
2022/07/23 01:10:34;;;;;;;4.75;3.87;;;;;;;19.21;60.12;99781.31;1831609;76;21009;-65
2022/07/23 01:13:07;;;;;;;5.27;3.40;;;;;;;19.20;60.32;99776.48;1835784;75;21840;-65
2022/07/23 01:15:35;;;;;;;6.20;3.60;;;;;;;19.17;60.46;99778.53;1852447;75;21667;-65
2022/07/23 01:18:02;;;;;;;;;;;;;;;19.14;60.46;99779.63;1846771;75;20992;-66
2022/07/23 01:20:32;;;;;;;4.95;3.75;;;;;;;19.10;60.98;99786.62;1838665;77;20431;-66
2022/07/23 01:22:58;;;;;;;6.17;3.87;;;;;;;19.07;60.54;99782.38;1808704;75;21631;-65
2022/07/23 01:25:25;;;;;;;3.83;3.37;;;;;;;19.18;60.11;99785.57;1843642;75;21820;-65
2022/07/23 01:27:56;;;;;;;3.65;3.35;;;;;;;19.16;60.05;99784.34;1828741;77;21526;-67
2022/07/23 01:30:25;;;;;;;4.70;4.05;;;;;;;19.14;60.10;99782.28;1835397;75;21580;-66
2022/07/23 01:32:52;;;;;;;5.80;4.15;;;;;;;19.17;60.07;99780.70;1840442;75;21498;-66
2022/07/23 01:35:19;;;;;;;3.75;3.42;;;;;;;19.09;60.23;99779.11;1834788;75;21664;-66
2022/07/23 01:37:46;;;;;;;4.00;3.70;;;;;;;19.05;60.38;99785.65;1831327;75;21474;-66
2022/07/23 01:40:14;;;;;;;4.87;3.90;;;;;;;19.03;60.43;99784.92;1834972;76;21545;-68
2022/07/23 01:42:40;;;;;;;4.65;4.25;;;;;;;19.05;60.45;99784.31;1845711;75;21620;-66
2022/07/23 01:45:10;;;;;;;3.95;3.50;;;;;;;19.03;60.58;99783.59;1832509;75;21505;-66
2022/07/23 01:47:38;;;;;;;6.25;4.40;;;;;;;18.99;60.74;99789.63;1853077;76;21410;-66
2022/07/23 01:50:07;;;;;;;5.47;3.90;;;;;;;18.97;60.77;99788.89;1847940;75;21405;-67
2022/07/23 01:52:44;;;;;;;11.05;4.15;;;;;;;18.96;60.82;99787.18;1828213;75;21040;-67
2022/07/23 01:55:12;;;;;;;5.72;3.65;;;;;;;18.89;60.88;99791.27;1840558;75;21533;-66
2022/07/23 01:57:41;;;;;;;4.50;3.95;;;;;;;18.93;60.86;99793.22;1840801;76;21417;-67
2022/07/23 02:00:09;;;;;;;4.67;4.28;;;;;;;18.90;60.89;99794.80;1833518;75;21438;-67
2022/07/23 02:02:42;;;;;;;5.03;4.45;;;;;;;18.88;61.07;99800.24;1842133;75;21767;-68
2022/07/23 02:05:09;;;;;;;5.78;4.33;;;;;;;18.91;61.11;99792.49;1842428;75;21493;-67
2022/07/23 02:07:37;;;;;;;7.33;4.03;;;;;;;18.87;61.17;99791.87;1839669;76;21436;-67
2022/07/23 02:10:06;;;;;;;;;;;;;;;18.88;61.21;99798.91;1846283;75;21386;-67
2022/07/23 02:12:34;;;;;;;5.03;4.47;;;;;;;18.90;61.51;99804.97;1836282;75;20554;-67
2022/07/23 02:15:00;;;;;;;4.70;4.15;;;;;;;18.89;61.19;99795.27;1830427;75;21899;-67
2022/07/23 02:17:27;;;;;;;5.00;4.25;;;;;;;18.89;61.40;99801.08;1843644;76;21529;-66
2022/07/23 02:19:54;;;;;;;4.60;3.70;;;;;;;18.89;61.46;99799.27;1826166;75;21458;-67
2022/07/23 02:22:22;;;;;;;7.60;3.60;;;;;;;18.84;61.95;99804.95;1826008;75;21620;-67
2022/07/23 02:24:49;;;;;;;5.30;4.40;;;;;;;18.80;62.54;99811.47;1835253;75;21546;-67
2022/07/23 02:27:15;;;;;;;3.98;3.60;;;;;;;18.80;62.72;99810.59;1838369;75;21729;-67
2022/07/23 02:29:43;;;;;;;4.62;3.95;;;;;;;18.84;63.04;99811.61;1836531;75;21457;-67
2022/07/23 02:32:10;;;;;;;5.15;4.10;;;;;;;18.91;62.99;99814.67;1833380;76;21467;-68
2022/07/23 02:34:37;;;;;;;5.37;3.47;;;;;;;18.89;63.16;99810.41;1831435;75;21403;-67
2022/07/23 02:37:04;;;;;;;4.53;4.10;;;;;;;18.91;63.50;99811.14;1833335;75;21497;-67
2022/07/23 02:39:31;;;;;;;5.90;3.95;;;;;;;18.90;63.53;99818.78;1840414;75;21767;-67
2022/07/23 02:41:59;;;;;;;4.30;3.90;;;;;;;18.98;63.38;99813.23;1833790;75;21430;-68
2022/07/23 02:44:26;;;;;;;6.35;4.05;;;;;;;18.96;63.49;99823.16;1848046;75;21497;-67
2022/07/23 02:46:53;;;;;;;5.05;3.87;;;;;;;18.98;63.48;99815.89;1846322;76;21471;-67
2022/07/23 02:49:20;;;;;;;4.05;3.65;;;;;;;19.01;63.38;99814.83;1845172;75;21503;-67
2022/07/23 02:51:48;;;;;;;5.62;3.75;;;;;;;19.02;63.24;99815.18;1836225;75;22118;-67
2022/07/23 02:54:15;;;;;;;3.80;3.50;;;;;;;19.03;63.34;99816.89;1834629;76;21523;-67
2022/07/23 02:56:43;;;;;;;5.33;4.22;;;;;;;19.00;63.42;99825.11;1811704;77;21022;-67
2022/07/23 02:59:11;;;;;;;9.68;3.77;;;;;;;18.93;63.60;99821.20;1814216;77;21492;-67
2022/07/23 03:01:38;;;;;;;11.37;4.90;;;;;;;18.99;63.73;99826.93;1775939;78;21407;-64
2022/07/23 03:04:05;;;;;;;5.08;3.83;;;;;;;19.02;63.88;99834.70;1774259;79;21554;-66
2022/07/23 03:06:32;;;;;;;7.37;4.12;;;;;;;19.06;63.91;99837.95;1773415;78;21503;-66
2022/07/23 03:08:59;;;;;;;6.97;4.12;;;;;;;19.13;63.99;99837.03;1776198;78;21440;-66
2022/07/23 03:11:26;;;;;;;6.55;4.20;;;;;;;19.14;63.93;99832.08;1771435;78;21539;-66
2022/07/23 03:13:53;;;;;;;6.97;4.60;;;;;;;19.11;64.03;99836.30;1778954;78;21505;-66
2022/07/23 03:16:21;;;;;;;12.30;4.10;;;;;;;19.14;64.33;99831.59;1782059;78;21816;-66
2022/07/23 03:18:48;;;;;;;5.17;4.00;;;;;;;19.19;64.36;99832.10;1780648;78;21013;-66
2022/07/23 03:21:14;;;;;;;7.28;4.12;;;;;;;19.22;64.56;99845.17;1787561;78;21458;-65
2022/07/23 03:23:42;;;;;;;6.90;4.47;;;;;;;19.23;64.63;99847.34;1788130;78;20934;-65
2022/07/23 03:26:09;;;;;;;4.70;4.30;;;;;;;19.24;64.87;99848.57;1770494;78;21016;-66
2022/07/23 03:28:37;;;;;;;4.00;3.67;;;;;;;19.39;64.77;99841.72;1771319;78;21799;-65
2022/07/23 03:31:05;;;;;;;7.37;5.12;;;;;;;19.39;64.90;99847.89;1751086;80;21490;-67
2022/07/23 03:33:32;;;;;;;7.33;4.40;;;;;;;19.47;64.91;99843.80;1746298;80;21534;-65
2022/07/23 03:35:59;;;;;;;3.98;3.67;;;;;;;19.58;64.56;99846.48;1758289;80;21554;-67
2022/07/23 03:38:28;;;;;;;4.08;3.67;;;;;;;19.61;64.84;99848.93;1751732;80;21108;-66
2022/07/23 03:40:56;;;;;;;5.17;4.60;;;;;;;19.70;64.98;99849.52;1751268;79;21526;-66
2022/07/23 03:43:25;;;;;;;6.22;3.90;;;;;;;19.82;64.75;99847.77;1748245;80;21665;-67
2022/07/23 03:45:51;;;;;;;5.22;3.60;;;;;;;19.95;64.36;99844.50;1754292;80;21445;-66
2022/07/23 03:48:19;;;;;;;4.72;4.03;;;;;;;20.14;64.10;99844.39;1773857;79;21502;-67
2022/07/23 03:50:45;;;;;;;4.65;4.20;;;;;;;20.16;64.11;99845.11;1786389;78;21437;-66
2022/07/23 03:53:12;;;;;;;4.70;4.30;;;;;;;20.20;64.10;99843.39;1765309;79;21945;-66
2022/07/23 03:55:39;;;;;;;5.37;3.67;;;;;;;20.34;63.94;99843.64;1802216;76;21636;-65
2022/07/23 03:58:06;;;;;;;4.15;3.85;;;;;;;20.48;63.42;99838.52;1762851;79;21404;-70
2022/07/23 04:00:32;;;;;;;4.47;4.15;;;;;;;20.56;63.10;99843.23;1805365;77;21522;-67
2022/07/23 04:03:00;;;;;;;4.50;3.72;;;;;;;20.69;62.90;99846.63;1787420;77;21463;-72
2022/07/23 04:05:27;;;;;;;4.40;4.00;;;;;;;20.78;62.73;99849.05;1805955;77;21827;-68
2022/07/23 04:07:56;;;;;;;4.25;3.80;;;;;;;20.90;62.43;99846.67;1770851;78;21486;-67
2022/07/23 04:10:23;;;;;;;6.65;3.80;;;;;;;20.98;62.28;99841.56;1793729;76;21593;-67
2022/07/23 04:12:52;;;;;;;6.75;3.92;;;;;;;21.10;62.18;99845.03;1794598;77;21599;-68
2022/07/23 04:15:18;;;;;;;4.45;3.67;;;;;;;21.16;62.20;99837.82;1800103;77;21459;-68
2022/07/23 04:17:46;;;;;;;4.17;3.83;;;;;;;21.26;61.95;99840.56;1801784;77;21911;-68
2022/07/23 04:20:13;;;;;;;5.58;3.98;;;;;;;21.36;61.55;99833.48;1784187;77;21029;-68
2022/07/23 04:22:43;;;;;;;4.42;4.08;;;;;;;21.46;61.16;99834.91;1796483;77;21578;-68
2022/07/23 04:25:10;;;;;;;4.40;4.00;;;;;;;21.51;61.31;99832.70;1787015;77;21525;-68
2022/07/23 04:27:37;;;;;;;5.42;3.80;;;;;;;21.58;61.52;99834.34;1786409;77;20997;-68
2022/07/23 04:30:05;;;;;;;5.40;3.90;;;;;;;21.65;61.40;99830.16;1798928;77;21743;-68
2022/07/23 04:32:33;;;;;;;4.47;4.08;;;;;;;21.77;61.18;99832.25;1801952;77;21036;-68
2022/07/23 04:35:02;;;;;;;8.68;4.42;;;;;;;21.85;61.54;99836.47;1797458;78;21437;-68
2022/07/23 04:37:29;;;;;;;4.10;3.62;;;;;;;21.96;61.62;99828.82;1793809;77;20985;-69
2022/07/23 04:39:56;;;;;;;3.87;3.47;;;;;;;21.96;61.62;99828.82;1811076;76;21411;-71
2022/07/23 04:42:24;;;;;;;3.50;3.20;;;;;;;22.05;61.18;99832.03;1759755;79;21407;-69
2022/07/23 04:44:51;;;;;;;4.08;3.75;;;;;;;22.14;60.90;99827.21;1763955;78;20992;-68
2022/07/23 04:47:18;;;;;;;4.00;3.60;;;;;;;22.27;60.56;99831.52;1770925;78;21518;-69
2022/07/23 04:49:45;;;;;;;5.83;3.42;;;;;;;22.31;60.37;99828.42;1769215;79;21647;-68
2022/07/23 04:52:12;;;;;;;3.55;3.25;;;;;;;22.37;60.37;99825.69;1800410;78;21514;-68
2022/07/23 04:54:39;;;;;;;3.90;3.58;;;;;;;22.47;60.34;99827.05;1790887;78;21941;-69
2022/07/23 04:57:06;;;;;;;4.25;3.85;;;;;;;22.59;60.09;99835.34;1802305;78;20999;-69
2022/07/23 04:59:34;;;;;;;3.90;3.60;;;;;;;22.69;59.71;99840.70;1802044;77;21503;-68
2022/07/23 05:02:02;;;;;;;5.25;3.10;;;;;;;22.84;59.46;99835.28;1780011;79;21597;-67
2022/07/23 05:04:31;;;;;;;3.37;3.12;;;;;;;22.92;59.10;99830.56;1811615;77;21434;-69
2022/07/23 05:06:58;;;;;;;3.50;3.20;;;;;;;22.92;59.10;99830.56;1757572;79;22310;-74
2022/07/23 05:09:27;;;;;;;3.80;3.00;;;;;;;23.15;58.82;99836.55;1769291;78;21563;-73
2022/07/23 05:11:53;;;;;;;3.72;3.35;;;;;;;23.15;58.82;99836.55;1785695;78;21532;-72
2022/07/23 05:14:21;;;;;;;3.72;2.87;;;;;;;23.22;58.38;99830.94;1794395;78;21021;-74
2022/07/23 05:16:50;;;;;;;3.10;2.90;;;;;;;23.44;57.97;99831.13;1798106;77;21583;-74
2022/07/23 05:19:18;;;;;;;5.17;2.75;;;;;;;23.44;57.97;99831.13;1797829;77;21468;-71
2022/07/23 05:21:45;;;;;;;3.10;2.67;;;;;;;23.37;57.50;99826.48;1792907;77;20980;-71
2022/07/23 05:24:12;;;;;;;4.30;3.17;;;;;;;23.10;59.69;99843.66;1793624;77;21436;-71
2022/07/23 05:26:39;;;;;;;4.08;3.22;;;;;;;23.58;57.78;99835.69;1774336;79;21589;-71
2022/07/23 05:29:06;;;;;;;4.67;2.87;;;;;;;23.66;57.10;99828.62;1781182;79;21453;-69
2022/07/23 05:31:34;;;;;;;3.95;2.30;;;;;;;23.69;56.97;99829.65;1760784;79;21489;-69
2022/07/23 05:34:02;;;;;;;5.30;2.47;;;;;;;23.75;56.77;99833.59;1762998;79;21406;-68
2022/07/23 05:36:29;;;;;;;2.80;2.60;;;;;;;22.25;59.48;99845.52;1754033;79;21593;-70
2022/07/23 05:38:58;;;;;;;2.90;2.60;;;;;;;23.17;58.49;99841.27;1743516;79;21510;-70
2022/07/23 05:41:26;;;;;;;2.67;2.25;;;;;;;23.27;57.88;99832.70;1810762;77;21643;-70
2022/07/23 05:43:53;;;;;;;2.85;2.30;;;;;;;23.39;57.85;99832.05;1787551;77;21802;-70
2022/07/23 05:46:19;;;;;;;3.37;2.22;;;;;;;23.50;57.65;99832.39;1785004;79;21691;-70
2022/07/23 05:48:49;;;;;;;3.22;2.40;;;;;;;23.62;57.12;99827.70;1751813;79;21479;-67
2022/07/23 05:51:22;;;;;;;6.05;2.27;;;;;;;23.70;57.15;99835.89;1767436;79;21559;-68
2022/07/23 05:53:49;;;;;;;4.35;2.25;;;;;;;23.82;56.77;99832.55;1789096;79;21411;-69
2022/07/23 05:56:18;;;;;;;4.83;2.42;;;;;;;23.91;55.93;99812.88;1796911;78;21875;-69
2022/07/23 05:58:45;;;;;;;2.08;1.62;;;;;;;24.01;55.76;99819.55;1783508;78;20961;-70
2022/07/23 06:01:12;;;;;;;3.65;1.70;;;;;;;24.13;55.95;99818.84;1786388;78;26046;-70
2022/07/23 06:03:41;;;;;;;3.17;1.62;;;;;;;24.21;55.04;99817.13;1780405;78;21450;-70
2022/07/23 06:06:10;;;;;;;2.35;1.55;;;;;;;24.33;54.51;99819.10;1791051;78;21475;-69
2022/07/23 06:08:38;;;;;;;3.45;1.17;;;;;;;24.46;53.13;99808.84;1783173;78;21785;-69
2022/07/23 06:11:07;;;;;;;2.05;1.27;;;;;;;24.58;52.64;99811.34;1774910;78;21554;-70
2022/07/23 06:13:34;;;;;;;;;;;;;;;24.68;51.77;99809.45;1789066;78;20973;-67
2022/07/23 06:16:02;;;;;;;2.77;1.10;;;;;;;24.79;49.94;99808.36;1785567;78;20969;-68
2022/07/23 06:18:31;;;;;;;1.02;0.90;;;;;;;24.86;50.34;99806.75;1783050;78;21435;-67
2022/07/23 06:20:59;;;;;;;2.40;1.37;;;;;;;24.92;49.57;99808.84;1784754;78;21831;-67
2022/07/23 06:23:26;;;;;;;2.08;1.27;;;;;;;24.96;49.14;99808.88;1788671;79;21017;-66
2022/07/23 06:25:53;;;;;;;1.25;1.15;;;;;;;25.06;48.86;99805.59;1784399;78;21682;-69
2022/07/23 06:28:20;;;;;;;2.07;1.40;;;;;;;25.16;48.57;99803.31;1772295;78;21570;-67
2022/07/23 06:30:48;;;;;;;1.92;1.30;;;;;;;25.24;48.93;99808.30;1780494;78;21550;-68
2022/07/23 06:33:15;;;;;;;1.77;1.45;;;;;;;25.36;48.54;99812.92;1752392;79;22142;-68
2022/07/23 06:35:42;;;;;;;1.32;1.22;;;;;;;25.49;47.74;99809.82;1786857;78;21455;-68
2022/07/23 06:38:10;;;;;;;1.62;1.30;;;;;;;25.57;47.28;99806.34;1783951;78;21415;-68
2022/07/23 06:40:37;;;;;;;1.87;1.57;;;;;;;25.66;46.80;99805.89;1785167;78;20966;-69
2022/07/23 06:43:03;;;;;;;7.00;1.75;;;;;;;25.73;46.51;99814.52;1784380;78;21016;-66
2022/07/23 06:45:30;;;;;;;9.45;1.60;;;;;;;25.76;46.67;99810.66;1748745;78;21773;-68
2022/07/23 06:47:57;;;;;;;1.40;1.30;;;;;;;25.87;46.66;99810.37;1785716;78;21599;-67
2022/07/23 06:50:24;;;;;;;2.12;1.20;;;;;;;25.95;46.07;99809.60;1780973;78;21068;-68
2022/07/23 06:52:52;;;;;;;2.98;1.00;;;;;;;26.02;45.38;99804.75;1780047;78;21525;-67
2022/07/23 06:55:19;;;;;;;3.57;1.20;;;;;;;26.07;44.81;99800.24;1773036;79;21074;-67
2022/07/23 06:57:45;;;;;;;2.25;1.52;;;;;;;26.09;44.87;99804.97;1753083;79;21509;-67
2022/07/23 07:00:13;;;;;;;1.35;1.12;;;;;;;26.14;45.15;99805.30;1756752;81;20965;-68
2022/07/23 07:02:41;;;;;;;4.40;1.20;;;;;;;26.18;44.80;99800.43;1751115;80;21458;-67
2022/07/23 07:05:08;;;;;;;1.42;1.32;;;;;;;26.20;44.83;99801.98;1752748;79;21521;-68
2022/07/23 07:07:36;;;;;;;4.20;1.47;;;;;;;26.26;45.04;99806.35;1754443;80;20937;-68
2022/07/23 07:10:04;;;;;;;3.40;1.30;;;;;;;26.33;44.93;99806.88;1747223;80;22459;-67
2022/07/23 07:12:31;;;;;;;4.12;1.40;;;;;;;26.36;44.70;99806.56;1757106;80;21538;-68
2022/07/23 07:14:57;;;;;;;4.30;1.60;;;;;;;26.46;44.88;99802.37;1756796;80;21497;-67
2022/07/23 07:17:25;;;;;;;2.45;1.65;;;;;;;26.59;44.89;99797.38;1752272;80;21654;-67
2022/07/23 07:19:53;;;;;;;1.57;1.40;;;;;;;26.68;44.64;99802.80;1757260;80;21592;-67
2022/07/23 07:22:20;;;;;;;2.83;1.43;;;;;;;26.74;44.28;99798.09;1752655;79;21527;-67
2022/07/23 07:24:47;;;;;;;4.45;1.52;;;;;;;26.80;44.03;99798.28;1749646;79;21490;-67
2022/07/23 07:27:21;;;;;;;5.20;1.30;;;;;;;26.91;44.02;99800.30;1742928;79;21498;-67
2022/07/23 07:29:48;;;;;;;3.95;1.67;;;;;;;26.96;43.66;99793.39;1744760;79;21505;-67
2022/07/23 07:32:14;;;;;;;5.65;1.50;;;;;;;26.98;44.10;99798.62;1751019;80;21509;-67
2022/07/23 07:34:41;;;;;;;4.10;1.70;;;;;;;27.01;43.99;99800.96;1760128;80;21863;-68
2022/07/23 07:37:07;;;;;;;3.15;1.70;;;;;;;27.05;42.83;99799.64;1751601;80;21422;-68
2022/07/23 07:39:34;;;;;;;3.30;1.90;;;;;;;27.03;43.38;99797.62;1757752;79;21482;-67
2022/07/23 07:42:01;;;;;;;5.63;1.70;;;;;;;27.05;43.46;99802.82;1751178;79;21541;-67
2022/07/23 07:44:28;;;;;;;2.55;1.50;;;;;;;27.09;43.01;99794.75;1753678;79;21743;-67
2022/07/23 07:46:54;;;;;;;1.77;1.25;;;;;;;27.22;42.82;99788.81;1750775;80;21839;-67
2022/07/23 07:49:21;;;;;;;3.70;1.52;;;;;;;27.33;42.90;99785.80;1748919;79;21532;-67
2022/07/23 07:51:48;;;;;;;3.90;1.42;;;;;;;27.40;42.87;99789.51;1749926;80;21044;-67
2022/07/23 07:54:15;;;;;;;2.70;1.90;;;;;;;27.47;43.03;99796.43;1741771;80;21578;-68
2022/07/23 07:56:42;;;;;;;3.42;2.12;;;;;;;27.53;43.08;99795.22;1762660;79;21410;-69
2022/07/23 07:59:11;;;;;;;6.23;2.10;;;;;;;27.61;43.01;99798.92;1775134;80;21741;-68
2022/07/23 08:01:37;;;;;;;4.22;1.77;;;;;;;27.63;42.88;99794.19;1769337;78;21186;-68
2022/07/23 08:04:04;;;;;;;4.15;1.82;;;;;;;27.64;43.05;99798.07;1759750;80;21517;-67
2022/07/23 08:06:31;;;;;;;3.47;1.70;;;;;;;27.70;42.87;99804.64;1772105;80;21543;-66
2022/07/23 08:08:58;;;;;;;2.75;1.72;;;;;;;27.71;42.64;99800.42;1748232;80;21414;-67
2022/07/23 08:11:25;;;;;;;4.47;1.73;;;;;;;27.71;42.35;99798.23;1762618;80;22127;-67
2022/07/23 08:13:52;;;;;;;3.42;1.65;;;;;;;27.74;42.78;99807.33;1770563;80;21478;-66
2022/07/23 08:16:19;;;;;;;7.42;4.12;;;;;;;27.84;42.86;99797.67;1768048;80;21528;-68
2022/07/23 08:18:46;;;;;;;4.55;2.95;;;;;;;27.87;42.74;99802.22;1773781;78;21543;-68
2022/07/23 08:21:12;;;;;;;4.28;2.02;;;;;;;27.96;42.71;99799.86;1772634;80;21407;-68
2022/07/23 08:23:39;;;;;;;6.67;2.83;;;;;;;28.04;42.84;99799.50;1770216;78;21910;-68
2022/07/23 08:26:06;;;;;;;2.92;2.62;;;;;;;28.07;42.99;99796.45;1760433;80;21115;-69
2022/07/23 08:28:33;;;;;;;2.47;1.85;;;;;;;28.11;43.36;99795.08;1767116;80;21638;-68
2022/07/23 08:31:00;;;;;;;2.10;1.90;;;;;;;28.15;42.73;99796.41;1778433;80;21411;-67
2022/07/23 08:33:28;;;;;;;3.50;1.77;;;;;;;28.23;41.97;99793.66;1765404;78;21481;-68
2022/07/23 08:35:55;;;;;;;4.00;1.90;;;;;;;28.32;42.75;99791.77;1770634;79;21862;-68
2022/07/23 08:38:22;;;;;;;1.82;1.72;;;;;;;28.39;42.50;99787.83;1769002;80;21409;-68
2022/07/23 08:40:52;;;;;;;3.58;1.70;;;;;;;28.45;42.43;99785.27;1769323;80;21478;-68
2022/07/23 08:43:28;;;;;;;2.58;1.67;;;;;;;28.55;42.32;99783.71;1768557;80;21477;-67
2022/07/23 08:45:56;;;;;;;5.35;1.62;;;;;;;28.62;42.30;99779.27;1772222;80;20992;-67
2022/07/23 08:48:25;;;;;;;1.98;1.72;;;;;;;28.73;43.06;99787.49;1767245;80;21649;-67
2022/07/23 08:50:55;;;;;;;3.25;2.08;;;;;;;28.85;42.25;99786.03;1772786;80;21494;-66
2022/07/23 08:53:23;;;;;;;2.45;1.42;;;;;;;28.94;40.58;99776.00;1767663;78;21488;-67
2022/07/23 08:55:52;;;;;;;12.95;1.82;;;;;;;29.00;39.73;99782.02;1765299;78;21486;-66
2022/07/23 08:58:19;;;;;;;1.95;1.62;;;;;;;29.02;39.73;99781.33;1782058;78;21489;-67
2022/07/23 09:00:46;;;;;;;1.72;1.42;;;;;;;29.03;40.44;99778.13;1780475;79;21458;-66
2022/07/23 09:03:21;;;;;;;2.12;1.50;;;;;;;29.05;39.92;99773.37;1780976;78;20957;-66
2022/07/23 09:05:50;;;;;;;2.33;2.12;;;;;;;29.02;39.65;99769.16;1787275;78;21491;-67
2022/07/23 09:08:22;;;;;;;2.55;1.90;;;;;;;29.01;40.18;99774.25;1749067;79;21072;-67
2022/07/23 09:10:56;;;;;;;4.97;2.17;;;;;;;29.10;40.33;99776.36;1777731;78;21407;-67
2022/07/23 09:13:45;;;;;;;4.08;1.70;;;;;;;29.13;40.13;99774.68;1780748;78;21934;-67
2022/07/23 09:16:21;;;;;;;2.90;1.70;;;;;;;29.11;39.75;99765.35;1773454;78;21472;-67
2022/07/23 09:18:58;;;;;;;1.50;1.40;;;;;;;29.16;39.20;99768.91;1778925;78;21490;-66
2022/07/23 09:21:35;;;;;;;1.60;1.50;;;;;;;29.26;39.17;99764.59;1776881;79;21599;-67
2022/07/23 09:24:07;;;;;;;;;;;;;;;29.34;39.17;99763.14;1780061;78;21401;-66
2022/07/23 09:26:42;;;;;;;1.72;1.40;;;;;;;29.46;39.14;99758.97;1771084;78;21809;-66
2022/07/23 09:29:19;;;;;;;2.30;2.00;;;;;;;29.55;38.27;99759.70;1780471;78;21493;-66
2022/07/23 09:31:56;;;;;;;2.00;1.42;;;;;;;29.61;38.57;99754.91;1777636;78;21540;-68
2022/07/23 09:34:33;;;;;;;2.60;1.60;;;;;;;29.67;38.51;99753.33;1786983;79;21019;-66
2022/07/23 09:37:13;;;;;;;4.60;1.65;;;;;;;29.66;38.06;99756.52;1774723;78;21425;-66
2022/07/23 09:39:40;;;;;;;1.57;1.42;;;;;;;29.69;37.56;99758.04;1787211;79;21803;-66
2022/07/23 09:42:24;;;;;;;1.87;1.77;;;;;;;29.66;37.45;99755.17;1770378;78;21004;-66
2022/07/23 09:44:57;;;;;;;2.22;1.80;;;;;;;29.61;37.29;99756.27;1769933;78;20918;-66
2022/07/23 09:47:29;;;;;;;2.50;1.70;;;;;;;29.57;37.34;99751.39;1778528;79;21041;-66
2022/07/23 09:50:09;;;;;;;1.70;1.50;;;;;;;29.50;37.42;99753.50;1779597;78;21573;-67
2022/07/23 09:52:49;;;;;;;4.05;1.85;;;;;;;29.54;37.28;99753.14;1780376;78;21827;-65
2022/07/23 09:55:18;;;;;;;3.25;1.70;;;;;;;29.56;37.15;99756.50;1763404;79;21597;-69
2022/07/23 09:57:56;;;;;;;1.72;1.62;;;;;;;29.49;37.04;99754.51;1764296;78;21525;-68
2022/07/23 10:00:15;;;;;;;2.08;1.62;;;;;;;29.60;37.30;99753.73;1763937;80;21515;-65
2022/07/23 10:02:42;;;;;;;1.72;1.60;;;;;;;29.73;36.94;99755.31;1760223;80;21609;-69
2022/07/23 10:05:26;;;;;;;2.35;1.70;;;;;;;29.78;36.82;99758.80;1744493;81;22206;-67
2022/07/23 10:07:54;;;;;;;4.67;1.60;;;;;;;29.84;36.61;99747.22;1738364;80;21534;-69
2022/07/23 10:10:23;;;;;;;4.22;1.52;;;;;;;29.89;36.30;99746.98;1743942;80;21547;-66
2022/07/23 10:15:48;;;;;;;4.33;2.05;;;;;;;29.76;36.98;99749.52;1733357;80;21593;-66
2022/07/23 10:18:16;;;;;;;2.85;1.70;;;;;;;29.73;37.20;99733.63;1763015;79;20926;-67
2022/07/23 10:20:44;;;;;;;2.20;1.50;;;;;;;29.78;36.70;99733.05;1760613;79;21046;-66
2022/07/23 10:23:18;;;;;;;;;;;;;;;29.89;36.82;99726.66;1769728;79;20942;-68
2022/07/23 10:26:36;;;;;;;3.30;2.22;;;;;;;30.05;36.37;99728.30;1759974;79;20445;-64
2022/07/23 10:29:34;;;;;;;4.37;1.50;;;;;;;30.19;36.97;99725.22;1753583;79;21609;-67
2022/07/23 10:32:06;;;;;;;4.67;1.57;;;;;;;30.46;35.92;99733.70;1754747;80;21956;-65
2022/07/23 10:34:54;;;;;;;1.60;1.40;;;;;;;30.53;35.80;99718.30;1756586;80;21638;-65
2022/07/23 10:37:40;;;;;;;2.80;1.80;;;;;;;30.65;35.58;99724.08;1750302;78;21474;-66
2022/07/23 10:40:20;;;;;;;10.15;1.45;;;;;;;30.87;35.29;99723.52;1781788;78;21565;-65
2022/07/23 10:42:48;;;;;;;1.60;1.50;;;;;;;31.01;34.88;99715.84;1777224;78;21529;-64
2022/07/23 10:45:32;;;;;;;;;;;;;;;30.94;35.06;99714.95;1777123;78;22083;-65
2022/07/23 10:48:21;;;;;;;1.45;1.35;;;;;;;30.99;35.46;99715.73;1762968;79;20427;-66
2022/07/23 10:51:15;;;;;;;2.47;1.60;;;;;;;31.02;35.39;99711.25;1757387;78;21577;-65
2022/07/23 10:53:56;;;;;;;2.40;1.60;;;;;;;30.99;34.68;99716.56;1753160;78;21501;-70
2022/07/23 10:56:58;;;;;;;3.77;1.40;;;;;;;31.01;34.57;99708.23;1753072;77;21371;-64
2022/07/23 10:59:25;;;;;;;1.30;1.10;;;;;;;30.92;33.53;99709.41;1792712;77;21864;-68
2022/07/23 11:01:52;;;;;;;1.80;1.30;;;;;;;30.86;33.74;99713.19;1782003;78;20980;-63
2022/07/23 11:04:22;;;;;;;3.87;1.42;;;;;;;30.92;33.95;99708.88;1786171;77;21478;-66
2022/07/23 11:06:54;;;;;;;2.35;1.00;;;;;;;31.03;34.07;99706.16;1794180;77;21074;-65
2022/07/23 11:09:41;;;;;;;2.27;1.20;;;;;;;31.11;33.35;99703.80;1772660;79;21631;-67
2022/07/23 11:12:23;;;;;;;4.67;3.52;;;;;;;31.22;33.24;99705.97;1767585;79;21520;-63
2022/07/23 11:15:11;;;;;;;2.67;1.60;;;;;;;31.40;33.71;99703.59;1763521;78;21507;-66
2022/07/23 11:17:47;;;;;;;2.12;1.40;;;;;;;31.55;33.50;99702.14;1776498;78;21547;-65
2022/07/23 11:20:21;;;;;;;3.33;1.30;;;;;;;31.69;33.50;99696.23;1805716;78;20974;-63
2022/07/23 11:22:51;;;;;;;2.45;1.52;;;;;;;31.78;32.61;99693.66;1815788;77;21561;-66
2022/07/23 11:25:31;;;;;;;2.98;1.35;;;;;;;31.87;32.46;99690.76;1785982;78;21886;-62
2022/07/23 11:28:20;;;;;;;2.87;1.40;;;;;;;31.90;33.02;99691.20;1778903;79;20969;-63
2022/07/23 11:30:47;;;;;;;3.22;1.37;;;;;;;31.99;32.98;99696.77;1748502;79;21493;-64
2022/07/23 11:33:16;;;;;;;;;;;;;;;32.08;32.30;99693.89;1795500;77;21567;-61
2022/07/23 11:35:46;;;;;;;1.82;1.40;;;;;;;32.12;32.39;99687.85;1802960;78;20163;-65
2022/07/23 11:38:18;;;;;;;2.42;1.40;;;;;;;32.17;32.11;99687.22;1789151;78;21865;-68
2022/07/23 11:40:54;;;;;;;1.45;1.12;;;;;;;32.22;31.37;99677.94;1798226;77;21065;-68
2022/07/23 11:43:22;;;;;;;1.30;1.20;;;;;;;32.21;31.48;99674.88;1759926;79;21529;-67
2022/07/23 11:45:52;;;;;;;1.52;1.20;;;;;;;32.16;31.42;99678.23;1779920;78;21685;-69
2022/07/23 11:48:26;;;;;;;2.10;1.22;;;;;;;32.16;31.44;99679.59;1782227;78;21667;-67
2022/07/23 11:50:54;;;;;;;3.37;1.37;;;;;;;32.17;31.88;99674.98;1781595;78;21924;-68